Time;durP1;ratioP1;P1;durP2;ratioP2;P2;SDS_P1;SDS_P2;PMS_P1;PMS_P2;Temp;Humidity;BMP_temperature;BMP_pressure;BME280_temperature;BME280_humidity;BME280_pressure;Samples;Min_cycle;Max_cycle;Signal;HPM_P1;HPM_P2
2022/07/20 00:02:27;;;;;;;6.63;6.03;;;24.30;1.00;;;;;;6274407;28;20289;-53
2022/07/20 00:05:29;;;;;;;5.80;5.40;;;24.20;1.00;;;;;;6266244;28;20257;-52
2022/07/20 00:11:55;;;;;;;6.00;5.40;;;24.00;1.00;;;;;;6282213;28;20363;-52
2022/07/20 00:14:58;;;;;;;8.90;5.13;;;24.00;1.00;;;;;;6263193;28;20530;-52
2022/07/20 00:18:01;;;;;;;5.93;5.53;;;23.90;1.00;;;;;;6256378;28;20298;-52
2022/07/20 00:21:04;;;;;;;5.80;5.40;;;23.90;1.00;;;;;;6257624;28;20881;-51
2022/07/20 00:24:07;;;;;;;5.23;5.00;;;23.90;1.00;;;;;;6276928;28;20310;-53
2022/07/20 00:27:12;;;;;;;5.83;5.43;;;23.80;1.00;;;;;;6275352;28;20237;-53
2022/07/20 00:30:15;;;;;;;6.40;6.00;;;23.70;1.00;;;;;;6240476;28;20947;-53
2022/07/20 00:33:18;;;;;;;7.50;6.10;;;23.70;1.00;;;;;;6275204;28;20724;-53
2022/07/20 00:36:21;;;;;;;5.70;5.40;;;23.70;1.00;;;;;;6282432;28;20229;-53
2022/07/20 00:39:24;;;;;;;6.73;6.10;;;23.50;1.00;;;;;;6259771;28;20708;-53
2022/07/20 00:42:28;;;;;;;6.30;5.90;;;23.50;1.00;;;;;;6280493;28;20332;-53
2022/07/20 00:45:31;;;;;;;6.17;5.70;;;23.50;1.00;;;;;;6274896;28;20694;-53
2022/07/20 00:48:34;;;;;;;6.93;6.20;;;23.50;1.00;;;;;;6252418;28;20506;-53
2022/07/20 00:51:39;;;;;;;7.77;5.73;;;23.50;1.00;;;;;;6257261;28;20244;-53
2022/07/20 00:54:45;;;;;;;6.13;5.73;;;23.50;1.00;;;;;;6256854;28;20346;-53
2022/07/20 00:57:50;;;;;;;6.40;5.90;;;23.50;1.00;;;;;;6256718;28;20229;-52
2022/07/20 01:00:52;;;;;;;6.50;6.10;;;23.50;1.00;;;;;;6253846;28;20234;-52
2022/07/20 01:03:55;;;;;;;6.30;5.90;;;23.50;1.00;;;;;;6268354;28;20231;-53
2022/07/20 01:06:59;;;;;;;6.57;5.90;;;23.50;1.00;;;;;;6273447;28;20237;-51
2022/07/20 01:10:02;;;;;;;7.80;6.20;;;23.40;1.00;;;;;;6265758;28;20315;-52
2022/07/20 01:13:06;;;;;;;6.53;6.03;;;23.50;1.00;;;;;;6281642;28;20605;-52
2022/07/20 01:16:09;;;;;;;7.03;6.47;;;23.40;1.00;;;;;;6256236;28;20240;-52
2022/07/20 01:19:13;;;;;;;6.40;6.00;;;23.40;1.00;;;;;;6255706;28;20857;-52
2022/07/20 01:22:17;;;;;;;7.00;6.47;;;23.30;1.00;;;;;;6279103;28;20234;-52
2022/07/20 01:25:20;;;;;;;6.50;6.07;;;23.40;1.00;;;;;;6281446;28;20705;-53
2022/07/20 01:28:23;;;;;;;7.33;6.70;;;23.40;1.00;;;;;;6280374;28;20245;-53
2022/07/20 01:31:26;;;;;;;7.07;6.57;;;23.40;1.00;;;;;;6265539;28;20376;-54
2022/07/20 01:34:29;;;;;;;7.17;6.67;;;23.30;1.00;;;;;;6287332;28;20245;-53
2022/07/20 01:37:33;;;;;;;6.67;6.23;;;23.30;1.00;;;;;;6292766;28;20533;-52
2022/07/20 01:40:36;;;;;;;7.37;6.77;;;23.20;1.00;;;;;;6272809;28;20226;-52
2022/07/20 01:43:39;;;;;;;7.03;6.30;;;23.30;1.00;;;;;;6254404;28;20234;-52
2022/07/20 01:46:42;;;;;;;7.20;6.70;;;23.20;1.00;;;;;;6255913;28;20256;-52
2022/07/20 01:49:45;;;;;;;7.97;6.37;;;23.20;1.00;;;;;;6256014;28;20238;-52
2022/07/20 01:52:49;;;;;;;7.13;6.50;;;23.30;1.00;;;;;;6259668;28;20238;-52
2022/07/20 01:55:52;;;;;;;7.47;6.73;;;23.20;1.00;;;;;;6260190;28;20234;-52
2022/07/20 01:58:55;;;;;;;7.03;6.20;;;23.20;1.00;;;;;;6256742;28;20273;-52
2022/07/20 02:01:58;;;;;;;7.50;7.00;;;23.10;1.00;;;;;;6260694;28;20613;-52
2022/07/20 02:05:01;;;;;;;7.33;6.87;;;23.10;1.00;;;;;;6288245;28;20242;-52
2022/07/20 02:08:06;;;;;;;7.50;6.47;;;23.00;1.00;;;;;;6288063;28;20233;-53
2022/07/20 02:11:08;;;;;;;7.20;6.70;;;23.00;1.00;;;;;;6273678;28;20603;-53
2022/07/20 02:14:11;;;;;;;6.33;5.80;;;23.00;1.00;;;;;;6253425;28;20848;-52
2022/07/20 02:17:14;;;;;;;7.73;6.83;;;23.00;1.00;;;;;;6284303;28;20375;-52
2022/07/20 02:20:17;;;;;;;7.03;6.40;;;22.90;1.00;;;;;;6266915;28;20751;-54
2022/07/20 02:23:21;;;;;;;7.50;6.37;;;23.00;1.00;;;;;;6260218;28;20245;-51
2022/07/20 02:26:24;;;;;;;6.87;6.37;;;23.00;1.00;;;;;;6259847;28;20327;-52
2022/07/20 02:29:27;;;;;;;8.40;7.60;;;22.90;1.00;;;;;;6255531;28;20233;-53
2022/07/20 02:32:30;;;;;;;7.13;6.70;;;22.90;1.00;;;;;;6263532;28;20507;-52
2022/07/20 02:35:33;;;;;;;7.00;6.43;;;22.80;1.00;;;;;;6305694;28;20237;-51
2022/07/20 02:38:38;;;;;;;7.07;6.50;;;22.80;1.00;;;;;;6285931;28;20292;-51
2022/07/20 02:41:41;;;;;;;6.63;6.33;;;22.70;1.00;;;;;;6284616;28;20259;-51
2022/07/20 02:44:44;;;;;;;7.43;6.93;;;22.60;1.00;;;;;;6265899;28;20260;-52
2022/07/20 02:47:48;;;;;;;7.33;6.67;;;22.60;1.00;;;;;;6260091;28;20229;-53
2022/07/20 02:50:51;;;;;;;9.23;6.87;;;22.50;1.00;;;;;;6261023;28;20274;-51
2022/07/20 02:53:55;;;;;;;7.20;6.70;;;22.40;1.00;;;;;;6301705;28;20229;-52
2022/07/20 02:56:58;;;;;;;7.60;6.83;;;22.40;1.00;;;;;;6282924;28;20246;-52
2022/07/20 03:00:01;;;;;;;7.63;6.90;;;22.30;1.00;;;;;;6269646;28;20233;-52
2022/07/20 03:03:04;;;;;;;7.90;7.30;;;22.30;1.00;;;;;;6283067;28;20714;-55
2022/07/20 03:06:07;;;;;;;7.50;7.03;;;22.30;1.00;;;;;;6306458;28;20228;-55
2022/07/20 03:09:12;;;;;;;7.37;6.80;;;22.20;1.00;;;;;;6271964;28;20302;-53
2022/07/20 03:12:14;;;;;;;8.00;7.27;;;22.10;1.00;;;;;;6283449;28;20764;-54
2022/07/20 03:15:18;;;;;;;7.60;7.07;;;22.10;1.00;;;;;;6281070;28;20249;-53
2022/07/20 03:18:21;;;;;;;7.30;6.73;;;22.10;1.00;;;;;;6275738;28;20238;-54
2022/07/20 03:21:25;;;;;;;8.10;7.30;;;22.00;1.00;;;;;;6258908;28;20617;-53
2022/07/20 03:24:29;;;;;;;7.23;6.73;;;22.10;1.00;;;;;;6257360;28;20233;-52
2022/07/20 03:27:32;;;;;;;8.73;7.93;;;22.00;1.00;;;;;;6258124;28;20369;-54
2022/07/20 03:30:35;;;;;;;7.87;6.73;;;22.00;1.00;;;;;;6255599;28;20312;-52
2022/07/20 03:33:38;;;;;;;7.20;6.70;;;22.00;1.00;;;;;;6262341;28;20383;-51
2022/07/20 03:36:41;;;;;;;7.57;6.90;;;22.00;1.00;;;;;;6274346;28;20705;-49
2022/07/20 03:39:45;;;;;;;7.67;7.07;;;22.00;1.00;;;;;;6281686;28;20820;-50
2022/07/20 03:42:48;;;;;;;7.63;7.13;;;22.00;1.00;;;;;;6276015;28;20239;-51
2022/07/20 03:45:51;;;;;;;8.93;8.10;;;22.10;1.00;;;;;;6279209;28;20918;-52
2022/07/20 03:48:54;;;;;;;11.03;8.73;;;22.10;1.00;;;;;;6274317;28;20299;-51
2022/07/20 03:51:57;;;;;;;10.60;7.73;;;22.10;1.00;;;;;;6275218;28;20752;-52
2022/07/20 03:55:02;;;;;;;7.77;7.17;;;22.10;1.00;;;;;;6282059;28;20262;-52
2022/07/20 03:58:05;;;;;;;8.63;7.80;;;22.00;1.00;;;;;;6284600;28;20635;-52
2022/07/20 04:01:07;;;;;;;7.63;6.93;;;22.00;1.00;;;;;;6271530;28;20247;-52
2022/07/20 04:04:10;;;;;;;7.87;7.20;;;22.00;1.00;;;;;;6284810;28;20236;-52
2022/07/20 04:07:13;;;;;;;7.90;7.40;;;22.00;1.00;;;;;;6280211;28;20229;-52
2022/07/20 04:10:17;;;;;;;9.10;7.47;;;22.00;1.00;;;;;;6272679;28;20234;-51
2022/07/20 04:13:26;;;;;;;8.67;7.97;;;22.00;1.00;;;;;;6276150;28;20240;-52
2022/07/20 04:16:29;;;;;;;8.37;7.70;;;22.00;1.00;;;;;;6282223;28;21424;-52
2022/07/20 04:19:34;;;;;;;10.80;9.87;;;22.00;1.00;;;;;;6284687;28;20247;-54
2022/07/20 04:22:36;;;;;;;8.77;8.17;;;22.00;1.00;;;;;;6281128;28;20294;-51
2022/07/20 04:25:41;;;;;;;8.13;7.33;;;22.00;1.00;;;;;;6279069;28;20240;-52
2022/07/20 04:28:44;;;;;;;10.17;8.20;;;22.00;1.00;;;;;;6273112;28;20314;-52
2022/07/20 04:31:46;;;;;;;8.10;7.33;;;22.00;1.00;;;;;;6286500;28;20360;-51
2022/07/20 04:34:49;;;;;;;9.47;7.80;;;22.00;1.00;;;;;;6281368;28;20248;-52
2022/07/20 04:37:56;;;;;;;8.33;7.63;;;22.00;1.00;;;;;;6278911;28;20290;-50
2022/07/20 04:41:00;;;;;;;8.03;7.40;;;22.00;1.00;;;;;;6276570;28;20320;-50
2022/07/20 04:44:03;;;;;;;7.87;7.23;;;22.00;1.00;;;;;;6270534;28;20761;-51
2022/07/20 04:47:06;;;;;;;8.07;7.40;;;22.10;1.00;;;;;;6281928;28;20229;-52
2022/07/20 04:50:10;;;;;;;8.67;7.87;;;22.10;1.00;;;;;;6267122;28;20756;-52
2022/07/20 04:53:13;;;;;;;8.93;8.20;;;22.10;1.00;;;;;;6283686;28;20324;-53
2022/07/20 04:56:18;;;;;;;9.03;8.33;;;22.20;1.00;;;;;;6286520;28;20359;-52
2022/07/20 04:59:21;;;;;;;9.37;8.47;;;22.20;1.00;;;;;;6258444;28;20239;-53
2022/07/20 05:02:24;;;;;;;11.30;8.70;;;22.30;1.00;;;;;;6268345;28;20454;-52
2022/07/20 05:05:27;;;;;;;8.63;7.87;;;22.40;1.00;;;;;;6281379;28;20319;-51
2022/07/20 05:08:29;;;;;;;12.70;8.17;;;22.50;1.00;;;;;;6279259;28;20322;-53
2022/07/20 05:11:34;;;;;;;9.10;8.30;;;22.60;1.00;;;;;;6286069;28;20232;-52
2022/07/20 05:14:36;;;;;;;10.53;8.47;;;22.80;1.00;;;;;;6278923;28;20447;-53
2022/07/20 05:17:39;;;;;;;8.33;7.63;;;23.00;1.00;;;;;;6280529;28;20243;-52
2022/07/20 05:20:42;;;;;;;9.53;8.73;;;23.10;1.00;;;;;;6280703;28;20405;-52
2022/07/20 05:23:45;;;;;;;8.30;7.80;;;23.10;1.00;;;;;;6282190;28;20235;-53
2022/07/20 05:26:49;;;;;;;10.33;8.57;;;23.40;1.00;;;;;;6278400;28;20711;-52
2022/07/20 05:29:52;;;;;;;9.43;8.53;;;23.60;1.00;;;;;;6283065;28;20328;-52
2022/07/20 05:32:55;;;;;;;11.50;8.53;;;23.80;1.00;;;;;;6270214;28;20230;-52
2022/07/20 05:36:00;;;;;;;11.63;8.07;;;24.00;1.00;;;;;;6270785;28;20596;-52
2022/07/20 05:39:03;;;;;;;9.27;8.37;;;24.30;1.00;;;;;;6280375;28;20247;-52
2022/07/20 05:42:08;;;;;;;9.40;8.57;;;24.50;1.00;;;;;;6271105;28;20233;-52
2022/07/20 05:45:11;;;;;;;9.43;8.70;;;24.70;1.00;;;;;;6277603;28;20384;-52
2022/07/20 05:48:15;;;;;;;11.37;9.10;;;25.00;1.00;;;;;;6273501;28;20229;-54
2022/07/20 05:51:17;;;;;;;9.80;8.80;;;25.10;1.00;;;;;;6283288;28;20952;-53
2022/07/20 05:54:33;;;;;;;11.03;9.33;;;25.30;1.00;;;;;;6280481;28;20300;-52
2022/07/20 05:57:38;;;;;;;10.73;9.23;;;25.40;1.00;;;;;;6290358;28;20848;-53
2022/07/20 06:00:42;;;;;;;9.37;8.30;;;25.70;1.00;;;;;;6282480;28;20321;-53
2022/07/20 06:03:45;;;;;;;10.80;9.57;;;25.90;1.00;;;;;;6278479;28;20237;-52
2022/07/20 06:06:50;;;;;;;13.53;9.43;;;26.20;1.00;;;;;;6284567;28;20320;-52
2022/07/20 06:09:53;;;;;;;9.37;8.47;;;26.40;1.00;;;;;;6290082;28;20283;-52
2022/07/20 06:12:58;;;;;;;10.27;9.13;;;26.60;1.00;;;;;;6284085;28;20594;-51
2022/07/20 06:16:08;;;;;;;13.97;10.10;;;26.90;1.00;;;;;;6281790;28;20244;-52
2022/07/20 06:19:11;;;;;;;10.60;9.03;;;27.10;1.00;;;;;;6286837;28;20232;-54
2022/07/20 06:22:14;;;;;;;12.77;9.40;;;27.40;1.00;;;;;;6283141;28;20242;-51
2022/07/20 06:25:18;;;;;;;9.87;8.87;;;27.60;1.00;;;;;;6290535;28;20694;-52
2022/07/20 06:28:23;;;;;;;12.63;9.37;;;27.90;1.00;;;;;;6286559;28;20827;-52
2022/07/20 06:31:26;;;;;;;12.80;9.70;;;28.10;1.00;;;;;;6275935;28;20768;-52
2022/07/20 06:34:49;;;;;;;13.07;9.43;;;28.30;1.00;;;;;;6275967;28;20237;-52
2022/07/20 06:37:53;;;;;;;16.97;9.53;;;28.50;1.00;;;;;;6278193;28;20526;-51
2022/07/20 06:40:56;;;;;;;10.20;9.10;;;28.80;1.00;;;;;;6279270;28;20240;-52
2022/07/20 06:44:00;;;;;;;11.10;9.27;;;28.80;1.00;;;;;;6283239;28;20337;-52
2022/07/20 06:47:04;;;;;;;10.47;9.57;;;28.90;1.00;;;;;;6280411;28;20613;-51
2022/07/20 06:50:07;;;;;;;10.00;9.05;;;29.20;1.00;;;;;;6283725;28;20716;-52
2022/07/20 06:53:10;;;;;;;9.13;8.32;;;29.40;1.00;;;;;;6284940;28;20719;-52
2022/07/20 06:56:13;;;;;;;18.13;9.55;;;29.60;1.00;;;;;;6281286;28;20803;-52
2022/07/20 06:59:17;;;;;;;11.93;8.32;;;29.70;1.00;;;;;;6272780;28;20282;-54
2022/07/20 07:02:20;;;;;;;9.60;8.63;;;29.90;1.00;;;;;;6285389;28;20240;-52
2022/07/20 07:05:23;;;;;;;16.35;8.93;;;30.00;1.00;;;;;;6282668;28;20602;-52
2022/07/20 07:08:26;;;;;;;16.10;10.30;;;30.10;1.00;;;;;;6280286;28;20348;-53
2022/07/20 07:11:29;;;;;;;12.52;9.05;;;30.30;1.00;;;;;;6285818;28;20241;-53
2022/07/20 07:14:34;;;;;;;16.80;9.40;;;30.40;1.00;;;;;;6274582;28;20735;-52
2022/07/20 07:17:37;;;;;;;12.40;10.23;;;30.40;1.00;;;;;;6286051;28;20723;-52
2022/07/20 07:20:40;;;;;;;15.45;9.95;;;30.60;1.00;;;;;;6281838;28;20504;-52
2022/07/20 07:23:45;;;;;;;14.32;9.18;;;30.70;1.00;;;;;;6278096;28;20321;-52
2022/07/20 07:26:48;;;;;;;14.32;9.80;;;30.70;1.00;;;;;;6281852;28;20256;-53
2022/07/20 07:29:52;;;;;;;9.63;8.15;;;30.80;1.00;;;;;;6280124;28;20233;-52
2022/07/20 07:32:55;;;;;;;14.20;9.43;;;30.90;1.00;;;;;;6273092;28;20748;-52
2022/07/20 07:35:58;;;;;;;9.40;8.40;;;31.00;1.00;;;;;;6240292;28;20329;-50
2022/07/20 07:39:01;;;;;;;19.80;9.73;;;31.10;1.00;;;;;;6275470;28;20323;-52
2022/07/20 07:42:04;;;;;;;12.82;9.18;;;31.10;1.00;;;;;;6281322;28;20678;-51
2022/07/20 07:45:14;;;;;;;13.23;8.63;;;31.10;1.00;;;;;;6279742;28;20330;-52
2022/07/20 07:48:17;;;;;;;9.88;9.02;;;31.10;1.00;;;;;;6287014;28;20245;-52
2022/07/20 07:51:20;;;;;;;16.48;8.60;;;31.20;1.00;;;;;;6271524;28;20750;-52
2022/07/20 07:54:23;;;;;;;12.52;8.38;;;31.10;1.00;;;;;;6281317;28;20237;-53
2022/07/20 07:57:27;;;;;;;11.30;8.30;;;31.10;1.00;;;;;;6282194;28;20241;-52
2022/07/20 08:00:31;;;;;;;10.52;8.57;;;31.10;1.00;;;;;;6274571;28;20267;-52
2022/07/20 08:03:34;;;;;;;16.05;9.80;;;31.00;1.00;;;;;;6281868;28;20251;-52
2022/07/20 08:06:37;;;;;;;16.45;9.57;;;31.00;1.00;;;;;;6284560;28;20679;-52
2022/07/20 08:09:40;;;;;;;9.80;8.82;;;31.10;1.00;;;;;;6277846;28;20237;-52
2022/07/20 08:12:43;;;;;;;9.57;8.52;;;31.00;1.00;;;;;;6282892;28;20264;-52
2022/07/20 08:15:48;;;;;;;10.05;8.43;;;31.00;1.00;;;;;;6277737;28;20316;-51
2022/07/20 08:18:53;;;;;;;14.20;9.18;;;31.10;1.00;;;;;;6279897;28;20600;-52
2022/07/20 08:21:56;;;;;;;14.60;8.95;;;31.00;1.00;;;;;;6274458;28;20371;-52
2022/07/20 08:25:00;;;;;;;11.95;9.00;;;30.90;1.00;;;;;;6271756;28;20302;-53
2022/07/20 08:28:11;;;;;;;10.55;8.82;;;31.00;1.00;;;;;;6272118;28;20674;-51
2022/07/20 08:31:15;;;;;;;10.30;8.50;;;31.10;1.00;;;;;;6277279;28;20355;-52
2022/07/20 08:34:18;;;;;;;11.63;9.02;;;31.10;1.00;;;;;;6277144;28;20617;-52
2022/07/20 08:37:24;;;;;;;10.50;7.97;;;31.20;1.00;;;;;;6275727;28;20241;-52
2022/07/20 08:40:27;;;;;;;8.15;7.35;;;31.40;1.00;;;;;;6283274;28;20384;-53
2022/07/20 08:43:30;;;;;;;9.35;7.47;;;31.50;1.00;;;;;;6284596;28;20244;-52
2022/07/20 08:46:36;;;;;;;13.27;8.02;;;31.70;1.00;;;;;;6278046;28;20296;-52
2022/07/20 08:49:45;;;;;;;8.70;7.65;;;31.80;1.00;;;;;;6280742;28;20237;-53
2022/07/20 08:52:48;;;;;;;13.32;7.70;;;31.90;1.00;;;;;;6283112;28;20238;-52
2022/07/20 08:55:51;;;;;;;11.85;7.88;;;32.10;1.00;;;;;;6279740;28;20298;-53
2022/07/20 08:58:54;;;;;;;14.35;7.22;;;32.20;1.00;;;;;;6276694;28;20332;-56
2022/07/20 09:02:04;;;;;;;8.27;7.53;;;32.50;1.00;;;;;;6266504;28;20634;-53
2022/07/20 09:05:08;;;;;;;14.60;7.70;;;32.60;1.00;;;;;;6286353;28;20229;-52
2022/07/20 09:08:17;;;;;;;14.73;7.82;;;32.70;1.00;;;;;;6287896;28;20587;-52
2022/07/20 09:11:21;;;;;;;14.88;7.13;;;32.80;1.00;;;;;;6278880;28;20298;-52
2022/07/20 09:14:48;;;;;;;9.32;7.72;;;33.00;1.00;;;;;;6276514;28;20309;-52
2022/07/20 09:18:03;;;;;;;9.32;6.57;;;33.10;1.00;;;;;;6287548;28;20295;-51
2022/07/20 09:21:08;;;;;;;8.55;6.03;;;33.10;1.00;;;;;;6290499;28;20669;-53
2022/07/20 09:24:11;;;;;;;14.70;6.68;;;33.30;1.00;;;;;;6284827;28;20229;-53
2022/07/20 09:27:14;;;;;;;8.65;6.45;;;33.40;1.00;;;;;;6282535;28;20229;-54
2022/07/20 09:30:18;;;;;;;12.35;6.93;;;33.50;1.00;;;;;;6287769;28;20653;-53
2022/07/20 09:33:27;;;;;;;8.63;6.15;;;33.70;1.00;;;;;;6284659;28;20266;-50
2022/07/20 09:36:31;;;;;;;6.90;5.32;;;33.80;1.00;;;;;;6287337;28;20331;-52
2022/07/20 09:39:34;;;;;;;14.02;5.80;;;33.80;1.00;;;;;;6282951;28;20484;-53
2022/07/20 09:42:38;;;;;;;6.75;5.55;;;33.90;1.00;;;;;;6290571;28;20281;-52
2022/07/20 09:45:41;;;;;;;11.98;6.22;;;33.90;1.00;;;;;;6277572;28;20229;-52
2022/07/20 09:48:48;;;;;;;8.50;6.03;;;34.00;1.00;;;;;;6283522;28;20233;-54
2022/07/20 09:51:59;;;;;;;10.05;5.63;;;33.90;1.00;;;;;;6279489;28;20229;-55
2022/07/20 09:55:22;;;;;;;15.68;6.07;;;34.10;1.00;;;;;;6283297;28;20237;-53
2022/07/20 09:58:31;;;;;;;16.02;5.53;;;34.10;1.00;;;;;;6284825;28;20702;-53
2022/07/20 10:01:37;;;;;;;18.35;5.72;;;34.20;1.00;;;;;;6281006;28;20775;-53
2022/07/20 10:04:41;;;;;;;6.90;5.32;;;34.20;1.00;;;;;;6289782;28;20237;-55
2022/07/20 10:07:45;;;;;;;4.82;4.40;;;34.30;1.00;;;;;;6255656;28;20734;-52
2022/07/20 10:10:48;;;;;;;6.03;4.70;;;34.50;1.00;;;;;;6280536;28;20279;-53
2022/07/20 10:13:53;;;;;;;4.85;4.53;;;34.70;1.00;;;;;;6286589;28;20679;-52
2022/07/20 10:16:56;;;;;;;7.97;4.65;;;34.80;1.00;;;;;;6278393;28;20229;-52
2022/07/20 10:20:01;;;;;;;4.70;4.38;;;34.80;1.00;;;;;;6283319;28;20312;-56
2022/07/20 10:23:29;;;;;;;5.43;4.95;;;34.90;1.00;;;;;;6284226;28;20237;-54
2022/07/20 10:26:32;;;;;;;10.95;4.22;;;35.00;1.00;;;;;;6275548;28;20240;-52
2022/07/20 10:29:37;;;;;;;5.07;4.18;;;35.10;1.00;;;;;;6275607;28;20340;-52
2022/07/20 10:32:52;;;;;;;6.32;4.78;;;35.30;1.00;;;;;;6288125;28;20874;-52
2022/07/20 10:36:41;;;;;;;5.05;4.60;;;35.30;1.00;;;;;;6274762;28;20237;-52
2022/07/20 10:39:43;;;;;;;6.30;4.03;;;35.30;1.00;;;;;;6278792;28;20887;-52
2022/07/20 10:42:50;;;;;;;5.45;4.60;;;35.40;1.00;;;;;;6283040;28;20315;-52
2022/07/20 10:45:53;;;;;;;7.78;4.28;;;35.40;1.00;;;;;;6285185;28;20308;-51
2022/07/20 10:48:56;;;;;;;8.30;4.75;;;35.40;1.00;;;;;;6292199;28;20561;-52
2022/07/20 10:52:28;;;;;;;4.35;3.95;;;35.40;1.00;;;;;;6280993;28;20616;-51
2022/07/20 10:55:51;;;;;;;6.47;4.80;;;35.50;1.00;;;;;;6281245;28;20820;-52
2022/07/20 10:58:59;;;;;;;9.43;4.53;;;35.60;1.00;;;;;;6279572;28;20237;-51
2022/07/20 11:02:03;;;;;;;6.47;4.30;;;35.50;1.00;;;;;;6285566;28;20333;-52
2022/07/20 11:05:18;;;;;;;6.45;4.35;;;35.60;1.00;;;;;;6283833;28;20320;-53
2022/07/20 11:08:23;;;;;;;5.47;4.50;;;35.70;1.00;;;;;;6281175;28;20246;-52
2022/07/20 11:11:27;;;;;;;4.85;4.38;;;35.70;1.00;;;;;;6282716;28;20547;-53
2022/07/20 11:14:53;;;;;;;4.00;3.90;;;35.70;1.00;;;;;;6254892;28;20248;-48
2022/07/20 11:17:56;;;;;;;8.07;5.00;;;35.70;1.00;;;;;;6278894;28;20775;-51
2022/07/20 11:21:01;;;;;;;5.68;4.10;;;35.70;1.00;;;;;;6285952;28;20376;-53
2022/07/20 11:24:20;;;;;;;6.03;3.78;;;35.70;1.00;;;;;;6284380;28;20232;-52
2022/07/20 11:27:23;;;;;;;7.40;4.20;;;35.80;1.00;;;;;;6288839;28;20375;-52
2022/07/20 11:30:32;;;;;;;6.45;3.90;;;35.80;1.00;;;;;;6272272;28;20731;-60
2022/07/20 11:33:37;;;;;;;4.72;4.28;;;35.90;1.00;;;;;;6286592;28;20256;-53
2022/07/20 11:36:40;;;;;;;8.18;4.50;;;36.00;1.00;;;;;;6277164;28;20298;-53
2022/07/20 11:39:45;;;;;;;6.93;4.25;;;36.10;1.00;;;;;;6285779;28;20336;-53
2022/07/20 11:43:07;;;;;;;5.50;4.30;;;36.20;1.00;;;;;;6282414;28;20522;-54
2022/07/20 11:46:13;;;;;;;6.05;3.97;;;36.40;1.00;;;;;;6281843;28;20370;-53
2022/07/20 11:49:17;;;;;;;5.93;4.35;;;36.40;1.00;;;;;;6276122;28;20307;-53
2022/07/20 11:52:38;;;;;;;5.13;4.25;;;36.50;1.00;;;;;;6284154;28;20315;-51
2022/07/20 11:55:43;;;;;;;6.43;4.70;;;36.50;1.00;;;;;;6282802;28;20683;-52
2022/07/20 11:58:50;;;;;;;5.25;4.13;;;36.70;1.00;;;;;;6276225;28;20908;-53
2022/07/20 12:01:56;;;;;;;4.13;3.72;;;36.70;1.00;;;;;;6282327;28;20612;-53
2022/07/20 12:05:00;;;;;;;8.40;4.63;;;36.70;1.00;;;;;;6283610;28;20623;-52
2022/07/20 12:08:12;;;;;;;11.75;4.55;;;36.80;1.00;;;;;;6279216;28;20250;-53
2022/07/20 12:11:16;;;;;;;7.57;4.38;;;36.70;1.00;;;;;;6280256;28;20307;-51
2022/07/20 12:14:27;;;;;;;8.05;4.40;;;36.70;1.00;;;;;;6277521;28;20331;-54
2022/07/20 12:17:52;;;;;;;5.75;4.50;;;36.80;1.00;;;;;;6275675;28;20237;-53
2022/07/20 12:20:59;;;;;;;6.65;4.30;;;36.90;1.00;;;;;;6281407;28;20670;-53
2022/07/20 12:24:04;;;;;;;6.25;4.47;;;36.90;1.00;;;;;;6268744;28;20612;-53
2022/07/20 12:27:09;;;;;;;4.75;4.22;;;36.90;1.00;;;;;;6275724;28;20234;-52
2022/07/20 12:30:28;;;;;;;5.90;4.45;;;36.90;1.00;;;;;;6265376;28;20325;-53
2022/07/20 12:33:31;;;;;;;5.15;4.28;;;36.80;1.00;;;;;;6278114;28;20315;-52
2022/07/20 12:36:39;;;;;;;5.72;3.95;;;36.80;1.00;;;;;;6265687;28;20753;-52
2022/07/20 12:39:47;;;;;;;7.00;4.07;;;36.90;1.00;;;;;;6277564;28;20241;-52
2022/07/20 12:42:51;;;;;;;4.70;3.97;;;37.00;1.00;;;;;;6275517;28;20221;-52
2022/07/20 12:45:54;;;;;;;4.55;3.92;;;37.20;1.00;;;;;;6280254;28;20260;-52
2022/07/20 12:48:57;;;;;;;6.03;4.40;;;37.30;1.00;;;;;;6276486;28;20236;-52
2022/07/20 12:52:00;;;;;;;4.80;4.30;;;37.30;1.00;;;;;;6281892;28;20233;-53
2022/07/20 12:55:04;;;;;;;4.80;4.40;;;37.30;1.00;;;;;;6280474;28;20313;-52
2022/07/20 12:58:08;;;;;;;7.03;3.90;;;37.30;1.00;;;;;;6273366;28;20324;-53
2022/07/20 13:01:12;;;;;;;13.27;4.78;;;37.30;1.00;;;;;;6282672;28;20236;-54
2022/07/20 13:04:16;;;;;;;6.68;4.18;;;37.30;1.00;;;;;;6288148;28;20310;-53
2022/07/20 13:07:19;;;;;;;4.70;4.35;;;37.20;1.00;;;;;;6278054;28;20837;-54
2022/07/20 13:10:22;;;;;;;6.20;4.40;;;37.10;1.00;;;;;;6287441;28;20784;-53
2022/07/20 13:13:27;;;;;;;4.50;4.10;;;37.10;1.00;;;;;;6288448;28;20248;-55
2022/07/20 13:16:30;;;;;;;6.97;4.07;;;37.20;1.00;;;;;;6275874;28;20714;-54
2022/07/20 13:19:33;;;;;;;5.10;4.20;;;37.40;1.00;;;;;;6284393;28;20241;-52
2022/07/20 13:22:35;;;;;;;4.28;4.05;;;37.40;1.00;;;;;;6281427;28;20248;-53
2022/07/20 13:25:40;;;;;;;6.68;4.38;;;37.40;1.00;;;;;;6286269;28;20245;-52
2022/07/20 13:28:44;;;;;;;4.53;4.13;;;37.40;1.00;;;;;;6273121;28;20495;-52
2022/07/20 13:31:47;;;;;;;7.40;4.47;;;37.30;1.00;;;;;;6280027;28;20714;-52
2022/07/20 13:34:53;;;;;;;8.35;4.15;;;37.20;1.00;;;;;;6271741;28;20712;-53
2022/07/20 13:37:56;;;;;;;8.68;4.43;;;37.20;1.00;;;;;;6274351;28;20225;-53
2022/07/20 13:41:00;;;;;;;6.47;4.32;;;37.20;1.00;;;;;;6279433;28;20312;-53
2022/07/20 13:44:06;;;;;;;6.05;4.30;;;37.20;1.00;;;;;;6272270;28;20258;-53
2022/07/20 13:47:09;;;;;;;6.10;4.50;;;37.30;1.00;;;;;;6281394;28;20745;-52
2022/07/20 13:50:12;;;;;;;5.15;4.07;;;37.20;1.00;;;;;;6275778;28;20256;-52
2022/07/20 13:53:15;;;;;;;6.15;4.20;;;37.10;1.00;;;;;;6284315;28;20722;-53
2022/07/20 13:56:18;;;;;;;5.10;4.03;;;37.10;1.00;;;;;;6287449;28;20334;-54
2022/07/20 13:59:22;;;;;;;5.85;4.63;;;37.20;1.00;;;;;;6273475;28;20241;-51
2022/07/20 14:02:25;;;;;;;4.68;4.28;;;37.20;1.00;;;;;;6293235;28;20245;-53
2022/07/20 14:05:29;;;;;;;5.05;4.03;;;37.20;1.00;;;;;;6284263;28;20410;-53
2022/07/20 14:08:32;;;;;;;7.80;4.68;;;37.30;1.00;;;;;;6283859;28;20233;-52
2022/07/20 14:11:35;;;;;;;8.15;4.63;;;37.30;1.00;;;;;;6278921;28;20687;-52
2022/07/20 14:14:40;;;;;;;5.00;4.60;;;37.30;1.00;;;;;;6282127;28;20298;-52
2022/07/20 14:17:43;;;;;;;6.63;4.65;;;37.30;1.00;;;;;;6282872;28;20773;-54
2022/07/20 14:20:46;;;;;;;5.65;4.45;;;37.30;1.00;;;;;;6283645;28;20325;-53
2022/07/20 14:24:09;;;;;;;5.00;4.57;;;37.50;1.00;;;;;;6280920;28;20263;-53
2022/07/20 14:27:12;;;;;;;4.68;4.35;;;37.50;1.00;;;;;;6280590;28;20311;-53
2022/07/20 14:30:16;;;;;;;14.35;5.18;;;37.50;1.00;;;;;;6283778;28;20332;-53
2022/07/20 14:33:19;;;;;;;9.93;4.30;;;37.40;1.00;;;;;;6256641;28;20225;-48
2022/07/20 14:36:22;;;;;;;4.22;3.92;;;37.30;1.00;;;;;;6276311;28;20241;-52
2022/07/20 14:39:25;;;;;;;5.10;4.35;;;37.40;1.00;;;;;;6285225;28;20625;-50
2022/07/20 14:42:28;;;;;;;5.88;4.32;;;37.50;1.00;;;;;;6284262;28;20240;-53
2022/07/20 14:45:33;;;;;;;6.03;4.28;;;37.70;1.00;;;;;;6277411;28;20776;-53
2022/07/20 14:48:36;;;;;;;5.97;4.75;;;37.90;1.00;;;;;;6278245;28;20736;-50
2022/07/20 14:51:39;;;;;;;12.25;4.63;;;37.90;1.00;;;;;;6281114;28;20229;-49
2022/07/20 14:54:42;;;;;;;8.20;4.00;;;37.80;1.00;;;;;;6287511;28;20242;-53
2022/07/20 14:57:46;;;;;;;4.35;4.03;;;37.70;1.00;;;;;;6283907;28;20221;-53
2022/07/20 15:00:51;;;;;;;5.63;4.32;;;37.50;1.00;;;;;;6277173;28;20288;-53
2022/07/20 15:03:54;;;;;;;6.75;3.90;;;37.40;1.00;;;;;;6285036;28;20725;-53
2022/07/20 15:07:01;;;;;;;4.88;4.40;;;37.30;1.00;;;;;;6281285;28;20245;-53
2022/07/20 15:10:06;;;;;;;4.70;4.32;;;37.20;1.00;;;;;;6280702;28;20242;-52
2022/07/20 15:13:09;;;;;;;7.38;4.68;;;37.10;1.00;;;;;;6286994;28;20840;-53
2022/07/20 15:16:13;;;;;;;5.78;4.25;;;37.30;1.00;;;;;;6281630;28;20265;-53
2022/07/20 15:19:16;;;;;;;7.35;4.38;;;37.40;1.00;;;;;;6283112;28;20249;-52
2022/07/20 15:22:21;;;;;;;5.85;4.50;;;37.60;1.00;;;;;;6288759;28;20320;-53
2022/07/20 15:25:24;;;;;;;4.75;4.28;;;37.70;1.00;;;;;;6281442;28;20237;-52
2022/07/20 15:28:27;;;;;;;4.82;4.43;;;37.80;1.00;;;;;;6286861;28;20243;-52
2022/07/20 15:31:31;;;;;;;5.22;4.60;;;37.70;1.00;;;;;;6278561;28;20288;-52
2022/07/20 15:34:54;;;;;;;5.10;4.70;;;37.70;1.00;;;;;;6275635;28;20248;-51
2022/07/20 15:37:57;;;;;;;4.85;4.38;;;37.50;1.00;;;;;;6283844;28;20242;-52
2022/07/20 15:41:00;;;;;;;8.13;4.85;;;37.50;1.00;;;;;;6282670;28;20257;-52
2022/07/20 15:44:03;;;;;;;6.07;5.05;;;37.30;1.00;;;;;;6279480;28;20692;-51
2022/07/20 15:47:08;;;;;;;5.00;4.38;;;37.20;1.00;;;;;;6280115;28;20910;-51
2022/07/20 15:50:13;;;;;;;5.85;5.32;;;37.20;1.00;;;;;;6275543;28;20286;-52
2022/07/20 15:53:16;;;;;;;7.82;5.03;;;37.20;1.00;;;;;;6281115;28;20229;-50
2022/07/20 15:56:19;;;;;;;8.85;4.70;;;37.20;1.00;;;;;;6286587;28;20320;-53
2022/07/20 15:59:30;;;;;;;5.28;4.80;;;37.20;1.00;;;;;;6277807;28;20237;-51
2022/07/20 16:02:35;;;;;;;8.70;5.00;;;37.20;1.00;;;;;;6292218;28;20233;-51
2022/07/20 16:05:37;;;;;;;11.15;5.05;;;37.20;1.00;;;;;;6287998;28;20604;-52
2022/07/20 16:08:40;;;;;;;6.25;5.05;;;37.10;1.00;;;;;;6282810;28;20368;-53
2022/07/20 16:11:43;;;;;;;6.20;4.78;;;37.10;1.00;;;;;;6279870;28;20229;-51
2022/07/20 16:14:47;;;;;;;5.25;4.75;;;37.30;1.00;;;;;;6272977;28;20909;-51
2022/07/20 16:17:51;;;;;;;5.85;5.25;;;37.30;1.00;;;;;;6283246;28;20229;-53